createdAt,value
2019-04-01T00:01:30.353Z,19.23
2019-04-01T00:06:34.916Z,17.40
2019-04-01T00:11:39.630Z,18.80
2019-04-01T00:16:44.857Z,19.70
2019-04-01T00:21:49.393Z,17.30
2019-04-01T00:26:54.214Z,14.90
2019-04-01T00:31:58.879Z,16.47
2019-04-01T00:37:03.425Z,14.70
2019-04-01T00:42:32.805Z,21.30
2019-04-01T00:47:37.746Z,16.20
2019-04-01T00:52:43.633Z,14.57
2019-04-01T00:57:48.185Z,16.70
2019-04-01T01:02:53.617Z,14.47
2019-04-01T01:07:59.292Z,18.83
2019-04-01T01:13:03.857Z,15.40
2019-04-01T01:18:08.782Z,16.03
2019-04-01T01:23:15.548Z,14.27
2019-04-01T01:28:20.197Z,14.60
2019-04-01T01:33:26.416Z,16.80
2019-04-01T01:38:32.143Z,17.07
2019-04-01T01:43:36.763Z,16.17
2019-04-01T01:48:41.404Z,17.23
2019-04-01T01:53:46.045Z,19.33
2019-04-01T01:58:50.708Z,12.70
2019-04-01T02:03:56.232Z,19.63
2019-04-01T02:09:00.769Z,17.23
2019-04-01T02:14:08.522Z,18.03
2019-04-01T02:19:13.202Z,20.47
2019-04-01T02:24:18.426Z,14.47
2019-04-01T02:29:23.009Z,17.57
2019-04-01T02:34:27.566Z,16.37
2019-04-01T02:39:32.212Z,15.50
2019-04-01T02:44:37.423Z,16.10
2019-04-01T02:49:43.511Z,12.33
2019-04-01T02:54:48.952Z,14.53
2019-04-01T02:59:53.613Z,15.43
2019-04-01T03:04:58.258Z,15.07
2019-04-01T03:10:02.998Z,17.53
2019-04-01T03:15:08.839Z,11.90
2019-04-01T03:20:16.232Z,16.17
2019-04-01T03:25:21.077Z,17.37
2019-04-01T03:30:26.778Z,14.70
2019-04-01T03:35:31.464Z,12.93
2019-04-01T03:40:36.028Z,14.93
2019-04-01T03:45:41.805Z,13.87
2019-04-01T03:50:46.346Z,13.70
2019-04-01T03:55:53.986Z,13.93
2019-04-01T04:00:59.644Z,15.80
2019-04-01T04:06:05.732Z,11.60
2019-04-01T04:11:10.316Z,11.73
2019-04-01T04:16:16.201Z,14.97
2019-04-01T04:21:23.792Z,14.73
2019-04-01T04:26:28.132Z,12.30
2019-04-01T04:31:32.826Z,11.13
2019-04-01T04:36:37.446Z,12.47
2019-04-01T04:41:42.090Z,13.60
2019-04-01T04:46:47.946Z,13.17
2019-04-01T04:51:52.481Z,13.10
2019-04-01T04:56:58.561Z,10.70
2019-04-01T05:02:03.165Z,14.77
2019-04-01T05:07:08.954Z,11.03
2019-04-01T05:12:14.780Z,11.70
2019-04-01T05:17:20.853Z,10.27
2019-04-01T05:22:25.441Z,11.10
2019-04-01T05:27:30.264Z,10.37
2019-04-01T05:32:35.766Z,8.27
2019-04-01T05:37:40.395Z,13.17
2019-04-01T05:42:44.989Z,9.87
2019-04-01T05:47:52.812Z,12.77
2019-04-01T05:52:57.361Z,10.67
2019-04-01T05:58:02.828Z,12.05
2019-04-01T06:03:07.405Z,11.63
2019-04-01T06:08:14.812Z,12.73
2019-04-01T06:13:19.434Z,10.40
2019-04-01T06:18:25.485Z,10.37
2019-04-01T06:23:30.102Z,10.80
2019-04-01T06:28:35.756Z,10.67
2019-04-01T06:33:43.217Z,13.03
2019-04-01T06:38:49.300Z,12.03
2019-04-01T06:43:53.979Z,9.27
2019-04-01T06:48:59.889Z,11.60
2019-04-01T06:54:04.454Z,9.83
2019-04-01T06:59:10.168Z,11.23
2019-04-01T07:04:15.816Z,13.23
2019-04-01T07:09:21.685Z,8.87
2019-04-01T07:14:26.292Z,8.70
2019-04-01T07:19:32.553Z,8.87
2019-04-01T07:24:37.117Z,14.27
2019-04-01T07:29:42.187Z,9.80
2019-04-01T07:34:46.951Z,9.70
2019-04-01T07:39:52.738Z,9.67
2019-04-01T07:44:57.305Z,9.43
2019-04-01T07:50:02.137Z,8.47
2019-04-01T07:55:06.692Z,9.67
2019-04-01T08:00:11.539Z,9.07
2019-04-01T08:05:16.093Z,5.03
2019-04-01T08:10:20.814Z,11.93
2019-04-01T08:15:25.356Z,10.23
2019-04-01T08:20:31.083Z,14.10
2019-04-01T08:25:35.765Z,14.30
2019-04-01T08:30:41.785Z,14.83
2019-04-01T08:35:46.445Z,10.70
2019-04-01T08:40:52.388Z,12.50
2019-04-01T08:45:57.037Z,13.40
2019-04-01T08:51:02.827Z,11.97
2019-04-01T08:56:07.384Z,12.17
2019-04-01T09:01:13.084Z,13.47
2019-04-01T09:06:17.620Z,7.57
2019-04-01T09:11:23.526Z,14.80
2019-04-01T09:16:28.103Z,14.40
2019-04-01T09:21:33.893Z,16.53
2019-04-01T09:26:39.514Z,15.90
2019-04-01T09:31:45.374Z,15.20
2019-04-01T09:36:49.928Z,15.13
2019-04-01T09:41:55.687Z,14.20
2019-04-01T09:47:02.432Z,10.27
2019-04-01T09:52:08.321Z,17.43
2019-04-01T09:57:17.943Z,16.57
2019-04-01T10:02:31.248Z,16.03
2019-04-01T10:07:25.905Z,17.00
2019-04-01T10:12:31.626Z,14.60
2019-04-01T10:17:36.282Z,14.27
2019-04-01T10:22:42.014Z,14.27
2019-04-01T10:27:46.794Z,14.20
2019-04-01T10:32:52.732Z,13.53
2019-04-01T10:37:57.314Z,14.93
2019-04-01T10:43:03.274Z,15.33
2019-04-01T10:48:07.956Z,13.67
2019-04-01T10:53:13.652Z,13.07
2019-04-01T10:58:18.271Z,13.93
2019-04-01T11:03:23.878Z,15.97
2019-04-01T11:08:28.626Z,18.20
2019-04-01T11:13:34.342Z,19.97
2019-04-01T11:18:38.985Z,15.90
2019-04-01T11:23:44.824Z,15.20
2019-04-01T11:28:49.442Z,15.87
2019-04-01T11:33:55.314Z,10.43
2019-04-01T11:39:00.088Z,16.73
2019-04-01T11:44:05.453Z,14.90
2019-04-01T11:49:10.027Z,10.53
2019-04-01T11:54:15.926Z,15.17
2019-04-01T11:59:20.489Z,13.60
2019-04-01T12:04:26.674Z,12.90
2019-04-01T12:09:31.380Z,17.57
2019-04-01T12:14:37.400Z,11.90
2019-04-01T12:19:41.953Z,13.83
2019-04-01T12:24:50.233Z,16.83
2019-04-01T12:29:55.077Z,18.43
2019-04-01T12:34:59.701Z,14.40
2019-04-01T12:40:04.801Z,16.73
2019-04-01T12:45:10.446Z,15.27
2019-04-01T12:50:15.350Z,17.67
2019-04-01T12:55:23.794Z,22.67
2019-04-01T13:00:29.467Z,15.33
2019-04-01T13:05:36.368Z,20.63
2019-04-01T13:10:45.473Z,17.27
2019-04-01T13:15:51.157Z,17.83
2019-04-01T13:20:55.829Z,16.70
2019-04-01T13:26:02.822Z,14.23
2019-04-01T13:31:07.537Z,16.43
2019-04-01T13:36:13.222Z,13.67
2019-04-01T13:41:17.781Z,14.57
2019-04-01T13:46:22.622Z,14.47
2019-04-01T13:51:27.271Z,15.43
2019-04-01T13:56:31.957Z,18.47
2019-04-01T14:01:36.511Z,14.97
2019-04-01T14:06:42.212Z,17.17
2019-04-01T14:11:46.835Z,13.47
2019-04-01T14:16:51.403Z,14.60
2019-04-01T14:21:56.051Z,14.93
2019-04-01T14:27:00.681Z,12.40
2019-04-01T14:32:05.241Z,16.63
2019-04-01T14:37:10.207Z,13.00
2019-04-01T14:42:14.918Z,11.73
2019-04-01T14:47:19.543Z,16.03
2019-04-01T14:52:32.377Z,13.63
2019-04-01T14:57:30.592Z,13.57
2019-04-01T15:02:35.350Z,17.23
2019-04-01T15:07:40.156Z,13.03
2019-04-01T15:12:46.385Z,12.80
2019-04-01T15:17:50.944Z,13.63
2019-04-01T15:22:55.563Z,14.37
2019-04-01T15:28:00.376Z,12.63
2019-04-01T15:33:05.138Z,13.07
2019-04-01T15:38:10.326Z,12.60
2019-04-01T15:43:15.330Z,15.20
2019-04-01T15:48:19.864Z,13.90
2019-04-01T15:53:24.419Z,13.10
2019-04-01T15:58:29.148Z,13.47
2019-04-01T16:03:34.654Z,9.33
2019-04-01T16:08:39.286Z,13.10
2019-04-01T16:13:43.845Z,10.07
2019-04-01T16:18:48.429Z,14.73
2019-04-01T16:23:56.706Z,14.83
2019-04-01T16:29:02.193Z,15.97
2019-04-01T16:34:09.809Z,12.43
2019-04-01T16:39:15.030Z,12.73
2019-04-01T16:44:21.413Z,13.53
2019-04-01T16:49:26.100Z,14.33
2019-04-01T16:54:30.726Z,14.57
2019-04-01T16:59:35.289Z,16.50
2019-04-01T17:04:40.038Z,11.73
2019-04-01T17:09:44.657Z,13.70
2019-04-01T17:14:50.701Z,14.27
2019-04-01T17:19:55.375Z,12.23
2019-04-01T17:25:00.354Z,16.93
2019-04-01T17:30:05.850Z,16.97
2019-04-01T17:35:10.511Z,18.00
2019-04-01T17:40:17.056Z,17.83
2019-04-01T17:45:27.330Z,16.87
2019-04-01T17:50:31.956Z,16.17
2019-04-01T17:55:38.065Z,13.57
2019-04-01T18:00:46.046Z,16.27
2019-04-01T18:05:54.497Z,10.53
2019-04-01T18:10:58.307Z,9.37
2019-04-01T18:16:04.434Z,12.57
2019-04-01T18:21:09.058Z,8.13
2019-04-01T18:26:15.296Z,9.87
2019-04-01T18:31:20.149Z,8.13
2019-04-01T18:36:26.538Z,7.37
2019-04-01T18:41:31.240Z,7.03
2019-04-01T18:46:38.125Z,5.27
2019-04-01T18:51:43.491Z,7.60
2019-04-01T18:56:49.974Z,11.87
2019-04-01T19:01:54.603Z,7.43
2019-04-01T19:07:00.573Z,7.73
2019-04-01T19:12:12.241Z,8.07
2019-04-01T19:17:20.129Z,8.20
2019-04-01T19:22:24.808Z,7.43
2019-04-01T19:27:29.533Z,8.37
2019-04-01T19:32:34.190Z,7.47
2019-04-01T19:37:39.955Z,12.17
2019-04-01T19:42:44.571Z,7.33
2019-04-01T19:47:50.442Z,15.10
2019-04-01T19:52:55.406Z,5.33
2019-04-01T19:58:04.898Z,7.03
2019-04-01T20:03:08.092Z,7.70
2019-04-01T20:08:16.374Z,5.47
2019-04-01T20:13:21.262Z,6.80
2019-04-01T20:18:27.204Z,7.40
2019-04-01T20:23:31.797Z,7.53
2019-04-01T20:28:37.219Z,7.27
2019-04-01T20:33:42.028Z,9.13
2019-04-01T20:38:47.922Z,5.67
2019-04-01T20:43:52.483Z,7.27
2019-04-01T20:48:58.161Z,6.23
2019-04-01T20:54:02.708Z,6.63
2019-04-01T20:59:10.273Z,11.53
2019-04-01T21:04:14.831Z,7.67
2019-04-01T21:09:20.801Z,5.93
2019-04-01T21:14:25.352Z,6.80
2019-04-01T21:19:31.440Z,6.73
2019-04-01T21:24:36.007Z,7.67
2019-04-01T21:29:42.043Z,5.53
2019-04-01T21:34:46.690Z,8.73
2019-04-01T21:39:52.679Z,6.63
2019-04-01T21:44:57.285Z,8.90
2019-04-01T21:50:01.875Z,5.60
2019-04-01T21:55:09.844Z,7.53
2019-04-01T22:00:19.707Z,9.27
2019-04-01T22:05:27.213Z,6.03
2019-04-01T22:10:32.238Z,7.13
2019-04-01T22:15:37.238Z,5.50
2019-04-01T22:20:42.685Z,7.00
2019-04-01T22:25:47.516Z,8.13
2019-04-01T22:30:52.943Z,6.77
2019-04-01T22:35:57.577Z,6.23
2019-04-01T22:41:02.210Z,4.93
2019-04-01T22:46:06.844Z,11.10
2019-04-01T22:51:11.366Z,6.27
2019-04-01T22:56:18.039Z,8.37
2019-04-01T23:01:23.044Z,6.43
2019-04-01T23:06:27.606Z,5.73
2019-04-01T23:11:33.866Z,6.57
2019-04-01T23:16:38.692Z,9.07
2019-04-01T23:21:43.330Z,6.67
2019-04-01T23:26:47.909Z,6.83
2019-04-01T23:31:53.888Z,10.43
2019-04-01T23:36:58.441Z,7.23
2019-04-01T23:42:03.475Z,5.23
2019-04-01T23:47:08.077Z,7.60
2019-04-01T23:52:13.907Z,7.60
2019-04-01T23:57:18.870Z,8.40
